Time;durP1;ratioP1;P1;durP2;ratioP2;P2;SDS_P1;SDS_P2;PMS_P1;PMS_P2;Temp;Humidity;BMP_temperature;BMP_pressure;BME280_temperature;BME280_humidity;BME280_pressure;Samples;Min_cycle;Max_cycle;Signal;HPM_P1;HPM_P2
2021/11/29 00:02:14;;;;;;;7.60;2.28;;;1.70;99.90;;;;;;5072474;28;20028;-65
2021/11/29 00:04:40;;;;;;;4.28;1.90;;;1.70;99.90;;;;;;5072687;28;20449;-65
2021/11/29 00:07:05;;;;;;;4.78;1.80;;;1.70;99.90;;;;;;5072334;28;20100;-65
2021/11/29 00:09:31;;;;;;;5.35;1.90;;;1.60;99.90;;;;;;5072475;28;20063;-65
2021/11/29 00:11:57;;;;;;;5.40;1.48;;;1.60;99.90;;;;;;5054324;28;20439;-65
2021/11/29 00:14:23;;;;;;;5.45;1.60;;;1.70;99.90;;;;;;5054411;28;20027;-64
2021/11/29 00:16:48;;;;;;;4.68;1.27;;;1.60;99.90;;;;;;5074570;28;20025;-65
2021/11/29 00:19:14;;;;;;;3.60;1.23;;;1.60;99.90;;;;;;5092622;28;20024;-65
2021/11/29 00:21:39;;;;;;;2.47;1.00;;;1.60;99.90;;;;;;5092287;28;20055;-65
2021/11/29 00:24:05;;;;;;;2.33;0.80;;;1.60;99.90;;;;;;5092504;28;20035;-65
2021/11/29 00:26:31;;;;;;;1.75;1.08;;;1.60;99.90;;;;;;5092208;28;20039;-65
2021/11/29 00:28:56;;;;;;;2.47;1.15;;;1.60;99.90;;;;;;5092574;28;20027;-65
2021/11/29 00:31:22;;;;;;;2.30;1.10;;;1.60;99.90;;;;;;5092326;28;20028;-65
2021/11/29 00:33:48;;;;;;;1.80;0.70;;;1.60;99.90;;;;;;5074268;28;20020;-65
2021/11/29 00:36:15;;;;;;;3.55;0.88;;;1.60;99.90;;;;;;5092285;28;20017;-65
2021/11/29 00:38:41;;;;;;;3.30;0.90;;;1.70;99.90;;;;;;5074168;28;20020;-65
2021/11/29 00:41:07;;;;;;;2.65;1.10;;;1.70;99.90;;;;;;5092265;28;20031;-65
2021/11/29 00:43:33;;;;;;;2.28;0.68;;;1.70;99.90;;;;;;5092212;28;20422;-65
2021/11/29 00:45:58;;;;;;;1.42;0.55;;;1.80;99.90;;;;;;5074314;28;20114;-65
2021/11/29 00:48:24;;;;;;;0.90;0.50;;;1.80;99.90;;;;;;5092261;28;20111;-65
2021/11/29 00:50:50;;;;;;;1.17;0.40;;;1.80;99.90;;;;;;5095272;28;20035;-65
2021/11/29 00:53:15;;;;;;;1.20;0.60;;;1.90;99.90;;;;;;5087414;28;20025;-65
2021/11/29 00:55:41;;;;;;;4.00;0.60;;;1.90;99.90;;;;;;5095528;28;20395;-65
2021/11/29 00:58:08;;;;;;;1.17;0.40;;;1.90;99.90;;;;;;5082713;28;20028;-65
2021/11/29 01:00:35;;;;;;;1.90;0.50;;;2.00;99.90;;;;;;5071727;28;20028;-66
2021/11/29 01:03:01;;;;;;;3.33;0.60;;;2.00;99.90;;;;;;5095666;28;20502;-65
2021/11/29 01:05:27;;;;;;;1.85;0.60;;;2.00;99.90;;;;;;5095652;28;20364;-66
2021/11/29 01:07:53;;;;;;;1.30;0.70;;;2.00;99.90;;;;;;5095476;28;20596;-65
2021/11/29 01:10:19;;;;;;;1.15;0.47;;;2.10;99.90;;;;;;5095427;28;20036;-65
2021/11/29 01:12:45;;;;;;;2.38;0.43;;;2.00;99.90;;;;;;5095353;28;20059;-65
2021/11/29 01:15:18;;;;;;;0.90;0.50;;;2.00;99.90;;;;;;5095395;28;20059;-65
2021/11/29 01:17:44;;;;;;;1.77;0.68;;;2.00;99.90;;;;;;5095263;28;20091;-66
2021/11/29 01:20:10;;;;;;;1.10;0.50;;;2.00;99.90;;;;;;5095473;28;20061;-65
2021/11/29 01:22:37;;;;;;;3.03;0.60;;;2.00;99.90;;;;;;5094978;28;20047;-65
2021/11/29 01:25:03;;;;;;;2.00;0.60;;;2.00;99.90;;;;;;5095302;28;20024;-65
2021/11/29 01:27:29;;;;;;;4.30;0.60;;;2.00;99.90;;;;;;5076920;28;20043;-65
2021/11/29 01:29:54;;;;;;;4.30;0.65;;;2.00;99.90;;;;;;5095296;28;20471;-65
2021/11/29 01:32:20;;;;;;;0.93;0.38;;;2.00;99.90;;;;;;5076914;28;20140;-66
2021/11/29 01:34:46;;;;;;;1.27;0.50;;;2.00;99.90;;;;;;5095000;28;20021;-65
2021/11/29 01:37:11;;;;;;;0.95;0.40;;;2.10;99.90;;;;;;5094904;28;20032;-65
2021/11/29 01:39:37;;;;;;;0.95;0.30;;;2.00;99.90;;;;;;5094905;28;20027;-65
2021/11/29 01:42:03;;;;;;;0.60;0.32;;;2.00;99.90;;;;;;5080033;28;20025;-66
2021/11/29 01:44:28;;;;;;;2.17;0.50;;;2.00;99.90;;;;;;5056726;28;20028;-66
2021/11/29 01:46:55;;;;;;;0.40;0.30;;;2.00;99.90;;;;;;5074500;28;20028;-66
2021/11/29 01:49:20;;;;;;;1.23;0.50;;;2.00;99.90;;;;;;5074770;28;20539;-66
2021/11/29 01:51:46;;;;;;;2.65;0.68;;;2.00;99.90;;;;;;5074211;28;20108;-66
2021/11/29 01:54:13;;;;;;;2.97;0.40;;;2.00;99.90;;;;;;5074440;28;20020;-66
2021/11/29 01:56:39;;;;;;;1.38;0.45;;;2.00;99.90;;;;;;5057149;28;20024;-66
2021/11/29 01:59:05;;;;;;;2.13;0.63;;;2.00;99.90;;;;;;5094687;28;20036;-66
2021/11/29 02:01:31;;;;;;;4.10;0.43;;;2.00;99.90;;;;;;5075253;28;20028;-66
2021/11/29 02:03:59;;;;;;;1.98;0.32;;;2.00;99.90;;;;;;5094534;28;20031;-66
2021/11/29 02:06:29;;;;;;;1.40;0.63;;;2.00;99.90;;;;;;5076111;28;20111;-66
2021/11/29 02:08:56;;;;;;;3.40;0.40;;;2.00;99.90;;;;;;5094397;28;20077;-66
2021/11/29 02:11:22;;;;;;;1.75;0.50;;;2.00;99.90;;;;;;5076293;28;20020;-66
2021/11/29 02:13:49;;;;;;;2.13;0.50;;;2.00;99.90;;;;;;5076059;28;20860;-66
2021/11/29 02:16:15;;;;;;;3.65;0.50;;;2.00;99.90;;;;;;5094294;28;20033;-66
2021/11/29 02:18:41;;;;;;;1.67;0.70;;;2.00;99.90;;;;;;5094091;28;20024;-66
2021/11/29 02:21:13;;;;;;;0.68;0.50;;;2.00;99.90;;;;;;5094237;28;20039;-65
2021/11/29 02:23:41;;;;;;;0.95;0.40;;;2.00;99.90;;;;;;5093853;28;20471;-66
2021/11/29 02:26:07;;;;;;;1.15;0.40;;;2.00;99.90;;;;;;5075950;28;20518;-66
2021/11/29 02:28:35;;;;;;;1.52;0.40;;;2.00;99.90;;;;;;5093977;28;20028;-66
2021/11/29 02:31:05;;;;;;;3.65;0.40;;;2.00;99.90;;;;;;5094096;28;20026;-66
2021/11/29 02:33:31;;;;;;;;;;;2.00;99.90;;;;;;5094072;28;20475;-66
2021/11/29 02:35:56;;;;;;;1.10;0.30;;;1.90;99.90;;;;;;5093916;28;19918;-66
2021/11/29 02:38:22;;;;;;;1.00;0.47;;;1.90;99.90;;;;;;5093909;28;20089;-66
2021/11/29 02:40:48;;;;;;;2.83;0.40;;;1.90;99.90;;;;;;5093716;28;20031;-66
2021/11/29 02:43:13;;;;;;;1.05;0.30;;;1.90;99.90;;;;;;5093796;28;20600;-66
2021/11/29 02:45:39;;;;;;;1.95;0.40;;;1.90;99.90;;;;;;5093656;28;20070;-66
2021/11/29 02:48:05;;;;;;;1.00;0.40;;;1.90;99.90;;;;;;5093512;28;20032;-66
2021/11/29 02:50:35;;;;;;;1.73;0.40;;;1.90;99.90;;;;;;5093842;28;20032;-66
2021/11/29 02:53:01;;;;;;;2.20;0.30;;;1.90;99.90;;;;;;5075352;28;20028;-66
2021/11/29 02:55:26;;;;;;;1.73;0.50;;;1.90;99.90;;;;;;5093500;28;20392;-66
2021/11/29 02:57:52;;;;;;;0.47;0.28;;;1.90;99.90;;;;;;5075123;28;20024;-66
2021/11/29 03:00:17;;;;;;;2.65;0.80;;;1.90;99.90;;;;;;5093464;28;20071;-65
2021/11/29 03:02:43;;;;;;;0.68;0.20;;;1.90;99.90;;;;;;5093271;28;20039;-66
2021/11/29 03:05:09;;;;;;;0.63;0.20;;;1.90;99.90;;;;;;5093418;28;20086;-66
2021/11/29 03:07:34;;;;;;;0.77;0.10;;;1.80;99.90;;;;;;5093266;28;20020;-66
2021/11/29 03:10:00;;;;;;;3.45;0.30;;;1.80;99.90;;;;;;5093627;28;20107;-66
2021/11/29 03:12:26;;;;;;;0.93;0.20;;;1.80;99.90;;;;;;5092991;28;20040;-66
2021/11/29 03:14:51;;;;;;;1.52;0.20;;;1.90;99.90;;;;;;5093150;28;20039;-66
2021/11/29 03:17:17;;;;;;;1.60;0.20;;;1.90;99.90;;;;;;5092963;28;20020;-66
2021/11/29 03:19:42;;;;;;;0.40;0.10;;;1.80;99.90;;;;;;5093188;28;20027;-66
2021/11/29 03:22:11;;;;;;;0.85;0.25;;;1.80;99.90;;;;;;5093228;28;20023;-66
2021/11/29 03:24:38;;;;;;;1.33;0.50;;;1.80;99.90;;;;;;5093078;28;20102;-66
2021/11/29 03:27:04;;;;;;;1.00;0.20;;;1.80;99.90;;;;;;5087167;28;20028;-66
2021/11/29 03:29:30;;;;;;;0.73;0.30;;;1.80;99.90;;;;;;5072859;28;20177;-66
2021/11/29 03:32:02;;;;;;;0.32;0.20;;;1.80;99.90;;;;;;5076590;28;20051;-66
2021/11/29 03:34:29;;;;;;;2.70;0.30;;;1.90;99.90;;;;;;5092841;28;20493;-66
2021/11/29 03:36:55;;;;;;;2.20;0.30;;;1.90;99.90;;;;;;5092784;28;20071;-66
2021/11/29 03:39:24;;;;;;;3.42;0.70;;;1.90;99.90;;;;;;5093166;28;20499;-65
2021/11/29 03:41:52;;;;;;;1.92;0.50;;;1.90;99.90;;;;;;5092754;28;20047;-66
2021/11/29 03:44:19;;;;;;;1.05;0.45;;;1.90;99.90;;;;;;5092504;28;20062;-66
2021/11/29 03:46:47;;;;;;;2.38;0.40;;;1.90;99.90;;;;;;5092753;28;20028;-66
2021/11/29 03:49:12;;;;;;;4.15;0.93;;;1.90;99.90;;;;;;5092820;28;20024;-66
2021/11/29 03:51:39;;;;;;;0.73;0.35;;;1.90;99.90;;;;;;5092812;28;20024;-66
2021/11/29 03:54:04;;;;;;;1.95;0.40;;;1.90;99.90;;;;;;5092821;28;20012;-66
2021/11/29 03:56:30;;;;;;;4.07;1.13;;;1.90;99.90;;;;;;5074439;28;20433;-66
2021/11/29 03:58:56;;;;;;;4.30;0.40;;;1.90;99.90;;;;;;5092481;28;20118;-66
2021/11/29 04:01:21;;;;;;;2.25;0.50;;;1.90;99.90;;;;;;5092742;28;20025;-66
2021/11/29 04:03:47;;;;;;;1.58;0.30;;;1.90;99.90;;;;;;5074519;28;20036;-66
2021/11/29 04:06:12;;;;;;;1.58;0.40;;;1.90;99.90;;;;;;5092696;28;20021;-66
2021/11/29 04:08:38;;;;;;;0.68;0.30;;;1.90;99.90;;;;;;5092526;28;20024;-66
2021/11/29 04:11:04;;;;;;;3.13;0.40;;;1.90;99.90;;;;;;5092574;28;20043;-66
2021/11/29 04:13:30;;;;;;;0.85;0.30;;;1.90;99.90;;;;;;5092340;28;20122;-66
2021/11/29 04:15:56;;;;;;;5.18;0.65;;;1.90;99.90;;;;;;5092567;28;20472;-66
2021/11/29 04:18:22;;;;;;;1.88;0.22;;;1.90;99.90;;;;;;5092447;28;20031;-66
2021/11/29 04:20:48;;;;;;;1.42;0.38;;;1.90;99.90;;;;;;5092616;28;20024;-66
2021/11/29 04:23:13;;;;;;;0.90;0.40;;;1.90;99.90;;;;;;5074392;28;20024;-66
2021/11/29 04:26:01;;;;;;;0.50;0.30;;;1.90;99.90;;;;;;5077337;28;20394;-66
2021/11/29 04:28:25;;;;;;;1.85;0.40;;;1.90;99.90;;;;;;5095722;28;20039;-66
2021/11/29 04:30:51;;;;;;;2.20;0.30;;;1.90;99.90;;;;;;5096412;28;20369;-66
2021/11/29 04:33:17;;;;;;;1.77;0.30;;;1.90;99.90;;;;;;5096182;28;20086;-66
2021/11/29 04:35:42;;;;;;;0.50;0.20;;;1.90;99.90;;;;;;5096486;28;20024;-66
2021/11/29 04:38:08;;;;;;;0.30;0.20;;;1.90;99.90;;;;;;5096143;28;20472;-66
2021/11/29 04:40:34;;;;;;;0.38;0.20;;;1.90;99.90;;;;;;5096019;28;20020;-66
2021/11/29 04:43:00;;;;;;;3.15;0.35;;;1.90;99.90;;;;;;5096103;28;20031;-65
2021/11/29 04:45:25;;;;;;;0.30;0.10;;;1.90;99.90;;;;;;5096004;28;20035;-66
2021/11/29 04:47:51;;;;;;;1.52;0.30;;;1.90;99.90;;;;;;5095956;28;20031;-66
2021/11/29 04:50:17;;;;;;;0.70;0.30;;;1.90;99.90;;;;;;5096022;28;20384;-66
2021/11/29 04:52:44;;;;;;;1.08;0.20;;;2.00;99.90;;;;;;5095891;28;20084;-66
2021/11/29 04:55:11;;;;;;;0.73;0.40;;;1.90;99.90;;;;;;5095729;28;20054;-66
2021/11/29 04:57:37;;;;;;;0.80;0.28;;;2.00;99.90;;;;;;5096034;28;20020;-66
2021/11/29 05:00:05;;;;;;;1.05;0.30;;;2.00;99.90;;;;;;5095346;28;20447;-66
2021/11/29 05:02:31;;;;;;;1.70;0.40;;;2.00;99.90;;;;;;5095712;28;20085;-66
2021/11/29 05:04:57;;;;;;;0.85;0.40;;;2.00;99.90;;;;;;5095688;28;20028;-66
2021/11/29 05:07:25;;;;;;;0.77;0.40;;;2.00;99.90;;;;;;5095580;28;20024;-66
2021/11/29 05:09:50;;;;;;;1.42;0.40;;;2.00;99.90;;;;;;5095457;28;20028;-66
2021/11/29 05:12:16;;;;;;;1.33;0.30;;;2.10;99.90;;;;;;5095500;28;20510;-66
2021/11/29 05:14:47;;;;;;;2.55;0.45;;;2.10;99.90;;;;;;5095348;28;20579;-66
2021/11/29 05:17:17;;;;;;;3.38;0.50;;;2.10;99.90;;;;;;5095409;28;20020;-66
2021/11/29 05:19:43;;;;;;;2.55;0.50;;;2.10;99.90;;;;;;5095002;28;20085;-66
2021/11/29 05:22:11;;;;;;;2.97;0.50;;;2.10;99.90;;;;;;5077181;28;20028;-66
2021/11/29 05:24:37;;;;;;;2.40;0.55;;;2.10;99.90;;;;;;5094438;28;20031;-66
2021/11/29 05:27:04;;;;;;;2.83;0.63;;;2.10;99.90;;;;;;5095296;28;20102;-66
2021/11/29 05:29:30;;;;;;;1.85;0.43;;;2.10;99.90;;;;;;5094971;28;20522;-66
2021/11/29 05:31:55;;;;;;;2.50;0.70;;;2.10;99.90;;;;;;5095245;28;20067;-66
2021/11/29 05:34:21;;;;;;;1.27;0.60;;;2.10;99.90;;;;;;5095143;28;20107;-66
2021/11/29 05:36:47;;;;;;;1.25;0.50;;;2.10;99.90;;;;;;5094677;28;20024;-66
2021/11/29 05:39:14;;;;;;;3.28;0.80;;;2.10;99.90;;;;;;5095021;28;20099;-66
2021/11/29 05:41:40;;;;;;;2.88;0.70;;;2.20;99.90;;;;;;5095001;28;20095;-66
2021/11/29 05:44:06;;;;;;;3.35;0.75;;;2.10;99.90;;;;;;5094883;28;20062;-66
2021/11/29 05:46:32;;;;;;;3.30;0.70;;;2.10;99.90;;;;;;5094840;28;20052;-66
2021/11/29 05:48:57;;;;;;;3.53;0.85;;;2.20;99.90;;;;;;5094864;28;20020;-66
2021/11/29 05:51:23;;;;;;;2.95;1.10;;;2.10;99.90;;;;;;5094673;28;20047;-66
2021/11/29 05:53:49;;;;;;;4.78;1.08;;;2.20;99.90;;;;;;5094707;28;20035;-66
2021/11/29 05:56:16;;;;;;;2.85;1.33;;;2.10;99.90;;;;;;5094753;28;20020;-66
2021/11/29 05:58:41;;;;;;;3.80;0.98;;;2.20;99.90;;;;;;5094519;28;20482;-66
2021/11/29 06:01:07;;;;;;;1.00;0.68;;;2.20;99.90;;;;;;5076259;28;20504;-66
2021/11/29 06:03:32;;;;;;;2.17;0.55;;;2.20;99.90;;;;;;5094547;28;20098;-66
2021/11/29 06:05:58;;;;;;;1.55;0.70;;;2.20;99.90;;;;;;5094352;28;20102;-66
2021/11/29 06:08:24;;;;;;;2.75;0.85;;;2.20;99.90;;;;;;5094516;28;20125;-66
2021/11/29 06:11:18;;;;;;;3.03;1.08;;;2.10;99.90;;;;;;5094258;28;20034;-66
2021/11/29 06:13:42;;;;;;;1.40;1.00;;;2.10;99.90;;;;;;5093502;28;20047;-66
2021/11/29 06:16:08;;;;;;;1.45;1.10;;;2.10;99.90;;;;;;5094277;28;20020;-66
2021/11/29 06:18:33;;;;;;;2.22;1.00;;;2.10;99.90;;;;;;5093985;28;20495;-66
2021/11/29 06:20:59;;;;;;;2.40;1.02;;;2.10;99.90;;;;;;5094206;28;20020;-66
2021/11/29 06:23:25;;;;;;;3.63;1.33;;;2.10;99.90;;;;;;5094152;28;20024;-66
2021/11/29 06:25:50;;;;;;;2.25;1.10;;;2.10;99.90;;;;;;5094014;28;20031;-66
2021/11/29 06:28:16;;;;;;;2.10;0.90;;;2.10;99.90;;;;;;5094132;28;20024;-66
2021/11/29 06:30:41;;;;;;;2.67;0.98;;;2.10;99.90;;;;;;5078498;28;20028;-66
2021/11/29 06:33:19;;;;;;;3.55;1.25;;;2.10;99.90;;;;;;5073604;28;20066;-66
2021/11/29 06:35:45;;;;;;;5.10;1.52;;;2.10;99.90;;;;;;5065084;28;20059;-66
2021/11/29 06:38:12;;;;;;;5.00;1.35;;;2.10;99.90;;;;;;5073728;28;20060;-66
2021/11/29 06:40:37;;;;;;;3.58;1.48;;;2.10;99.90;;;;;;5088989;28;20073;-66
2021/11/29 06:43:03;;;;;;;2.08;1.20;;;2.10;99.90;;;;;;5083046;28;20024;-66
2021/11/29 06:45:29;;;;;;;3.33;1.48;;;2.10;99.90;;;;;;5053802;28;20066;-66
2021/11/29 06:47:55;;;;;;;4.72;2.30;;;2.10;99.90;;;;;;5082680;28;20100;-66
2021/11/29 06:50:22;;;;;;;3.95;1.35;;;2.10;99.90;;;;;;5074618;28;20024;-66
2021/11/29 06:52:49;;;;;;;2.95;1.60;;;2.10;99.90;;;;;;5075560;28;20020;-66
2021/11/29 06:55:15;;;;;;;4.47;1.88;;;2.10;99.90;;;;;;5080869;28;20082;-66
2021/11/29 06:57:42;;;;;;;6.00;1.60;;;2.20;99.90;;;;;;5080771;28;20020;-66
2021/11/29 07:00:10;;;;;;;2.50;1.30;;;2.10;99.90;;;;;;5074170;28;20095;-67
2021/11/29 07:02:37;;;;;;;3.92;1.25;;;2.10;99.90;;;;;;5071874;28;20027;-66
2021/11/29 07:05:13;;;;;;;;;;;;;;;;;;;;;
2021/11/29 07:07:40;;;;;;;3.53;1.17;;;2.10;99.90;;;;;;5074423;28;20021;-67
2021/11/29 07:10:07;;;;;;;4.60;1.20;;;2.10;99.90;;;;;;5082409;28;20028;-66
2021/11/29 07:12:34;;;;;;;2.92;1.02;;;2.10;99.90;;;;;;5071425;28;20043;-66
2021/11/29 07:15:00;;;;;;;3.10;1.50;;;2.10;99.90;;;;;;5079840;28;20031;-66
2021/11/29 07:17:36;;;;;;;2.72;1.20;;;2.10;99.90;;;;;;5082388;28;20020;-66
2021/11/29 07:20:06;;;;;;;3.60;1.20;;;2.10;99.90;;;;;;5058440;28;20024;-66
2021/11/29 07:22:32;;;;;;;3.20;1.38;;;2.10;99.90;;;;;;5070896;28;20048;-66
2021/11/29 07:25:01;;;;;;;3.38;1.30;;;2.10;99.90;;;;;;5070963;28;20056;-66
2021/11/29 07:27:27;;;;;;;2.13;1.40;;;2.10;99.90;;;;;;5055797;28;20399;-66
2021/11/29 07:29:52;;;;;;;4.07;1.60;;;2.20;99.90;;;;;;5072977;28;20024;-66
2021/11/29 07:32:29;;;;;;;1.75;0.82;;;2.20;99.90;;;;;;5077702;28;20031;-66
2021/11/29 07:35:11;;;;;;;2.47;0.93;;;2.20;99.90;;;;;;5081833;28;20008;-66
2021/11/29 07:37:37;;;;;;;1.90;0.75;;;2.20;99.90;;;;;;5076577;28;20017;-66
2021/11/29 07:40:06;;;;;;;2.70;0.80;;;2.30;99.90;;;;;;5073566;28;20032;-66
2021/11/29 07:42:37;;;;;;;2.15;1.08;;;2.30;99.90;;;;;;5077020;28;20475;-66
2021/11/29 07:45:05;;;;;;;2.05;0.73;;;2.30;99.90;;;;;;5054733;28;20111;-66
2021/11/29 07:47:31;;;;;;;3.50;0.90;;;2.40;99.90;;;;;;5074781;28;20132;-66
2021/11/29 07:50:15;;;;;;;6.10;1.35;;;2.40;99.90;;;;;;5071338;28;20446;-67
2021/11/29 07:52:43;;;;;;;2.63;0.70;;;2.50;99.90;;;;;;5071377;28;20039;-66
2021/11/29 07:55:11;;;;;;;4.78;0.95;;;2.50;99.90;;;;;;5073890;28;20021;-66
2021/11/29 07:57:39;;;;;;;3.40;0.70;;;2.50;99.90;;;;;;5073774;28;20016;-66
2021/11/29 08:00:17;;;;;;;2.90;0.60;;;2.50;99.90;;;;;;5077961;28;20042;-66
2021/11/29 08:02:42;;;;;;;4.20;0.77;;;2.60;99.90;;;;;;5078343;28;20043;-66
2021/11/29 08:05:08;;;;;;;4.70;0.70;;;2.60;99.90;;;;;;5094917;28;20468;-66
2021/11/29 08:07:34;;;;;;;3.05;0.80;;;2.70;99.90;;;;;;5093122;28;20020;-67
2021/11/29 08:09:59;;;;;;;2.05;0.60;;;2.70;99.90;;;;;;5073912;28;20028;-66
2021/11/29 08:12:25;;;;;;;5.13;0.70;;;2.70;99.90;;;;;;5080608;28;20036;-66
2021/11/29 08:14:53;;;;;;;2.30;0.60;;;2.80;99.90;;;;;;5060054;28;20032;-67
2021/11/29 08:17:19;;;;;;;2.63;0.55;;;2.90;99.90;;;;;;5092456;28;20437;-66
2021/11/29 08:19:44;;;;;;;3.60;0.80;;;3.00;99.90;;;;;;5096358;28;20016;-66
2021/11/29 08:22:10;;;;;;;6.10;0.77;;;3.00;99.90;;;;;;5096157;28;20035;-66
2021/11/29 08:24:36;;;;;;;3.88;0.68;;;3.10;99.90;;;;;;5095990;28;20365;-66
2021/11/29 08:27:02;;;;;;;3.95;1.02;;;3.10;99.90;;;;;;5095887;28;20035;-66
2021/11/29 08:29:27;;;;;;;4.00;0.80;;;3.20;99.90;;;;;;5096207;28;20028;-66
2021/11/29 08:31:53;;;;;;;2.90;0.77;;;3.20;99.90;;;;;;5095814;28;20030;-66
2021/11/29 08:34:18;;;;;;;2.25;0.70;;;3.20;99.90;;;;;;5096351;28;20540;-66
2021/11/29 08:36:44;;;;;;;3.17;0.60;;;3.30;99.90;;;;;;5077472;28;20035;-66
2021/11/29 08:39:10;;;;;;;2.92;0.77;;;3.20;99.90;;;;;;5077947;28;20376;-66
2021/11/29 08:41:35;;;;;;;1.95;0.75;;;3.30;99.90;;;;;;5095845;28;20054;-67
2021/11/29 08:44:03;;;;;;;5.45;0.63;;;3.30;99.90;;;;;;5095925;28;20050;-66
2021/11/29 08:46:30;;;;;;;2.03;0.50;;;3.30;99.90;;;;;;5095200;28;20039;-67
2021/11/29 08:48:56;;;;;;;3.83;0.82;;;3.30;99.90;;;;;;5095369;28;20403;-66
2021/11/29 08:51:22;;;;;;;4.72;0.70;;;3.40;99.90;;;;;;5095850;28;20575;-67
2021/11/29 08:53:48;;;;;;;7.53;0.80;;;3.40;99.90;;;;;;5095425;28;20099;-66
2021/11/29 08:56:14;;;;;;;1.52;0.50;;;3.50;99.90;;;;;;5095617;28;20035;-67
2021/11/29 08:58:40;;;;;;;2.67;0.40;;;3.50;99.90;;;;;;5095661;28;20020;-66
2021/11/29 09:01:06;;;;;;;3.40;0.70;;;3.50;99.90;;;;;;5095142;28;20047;-67
2021/11/29 09:03:32;;;;;;;2.38;0.63;;;3.50;99.90;;;;;;5095120;28;20099;-67
2021/11/29 09:05:58;;;;;;;3.20;0.60;;;3.60;99.90;;;;;;5095579;28;20032;-67
2021/11/29 09:08:25;;;;;;;3.03;0.50;;;3.60;99.90;;;;;;5094944;28;20546;-67
2021/11/29 09:10:51;;;;;;;2.35;0.50;;;3.60;99.90;;;;;;5094291;28;20035;-67
2021/11/29 09:13:20;;;;;;;4.25;0.65;;;3.70;99.90;;;;;;5076449;28;20105;-66
2021/11/29 09:15:47;;;;;;;3.95;0.55;;;3.80;99.90;;;;;;5095263;28;20020;-67
2021/11/29 09:18:14;;;;;;;3.08;0.55;;;3.80;99.90;;;;;;5094868;28;20499;-66
2021/11/29 09:20:42;;;;;;;2.83;0.60;;;3.90;99.90;;;;;;5095225;28;20036;-67
2021/11/29 09:23:11;;;;;;;3.67;0.60;;;4.00;99.90;;;;;;5094692;28;20024;-66
2021/11/29 09:25:41;;;;;;;3.10;0.40;;;4.10;99.90;;;;;;5095269;28;20027;-66
2021/11/29 09:28:11;;;;;;;2.97;1.10;;;4.20;99.90;;;;;;5094577;28;20433;-67
2021/11/29 09:30:37;;;;;;;;;;;4.30;99.90;;;;;;5095289;28;20118;-66
2021/11/29 09:33:04;;;;;;;3.97;0.88;;;4.30;99.90;;;;;;5094795;28;19908;-67
2021/11/29 09:35:29;;;;;;;4.70;1.25;;;4.40;99.90;;;;;;5094964;28;20066;-66
2021/11/29 09:37:56;;;;;;;3.10;0.80;;;4.50;99.90;;;;;;5094162;28;20032;-67
2021/11/29 09:40:25;;;;;;;3.95;0.70;;;4.60;99.90;;;;;;5094669;28;20422;-66
2021/11/29 09:42:52;;;;;;;4.30;0.90;;;4.80;99.90;;;;;;5094356;28;20039;-67
2021/11/29 09:45:20;;;;;;;3.55;0.82;;;4.90;99.90;;;;;;5095094;28;20016;-68
2021/11/29 09:47:46;;;;;;;2.45;0.60;;;5.10;99.90;;;;;;5094624;28;20020;-67
2021/11/29 09:50:14;;;;;;;1.70;0.60;;;5.30;99.90;;;;;;5094616;28;20050;-67
2021/11/29 09:52:39;;;;;;;2.45;0.50;;;5.60;99.90;;;;;;5093985;28;20028;-68
2021/11/29 09:55:09;;;;;;;1.70;0.57;;;6.10;99.90;;;;;;5094544;28;20491;-68
2021/11/29 09:57:39;;;;;;;1.88;0.50;;;6.40;99.90;;;;;;5094128;28;20043;-67
2021/11/29 10:03:07;;;;;;;1.80;0.60;;;7.40;99.90;;;;;;5081780;28;20403;-67
2021/11/29 10:05:35;;;;;;;1.95;0.40;;;8.00;99.90;;;;;;5083109;28;20020;-67
2021/11/29 10:08:25;;;;;;;2.08;0.40;;;8.90;99.10;;;;;;5094135;28;20035;-68
2021/11/29 10:11:24;;;;;;;;;;;9.60;96.80;;;;;;5094390;28;20110;-68
2021/11/29 10:14:13;;;;;;;1.13;0.30;;;9.50;95.90;;;;;;5094011;28;19998;-68
2021/11/29 10:16:43;;;;;;;1.13;0.35;;;9.20;95.00;;;;;;5091310;28;20028;-68
2021/11/29 10:19:21;;;;;;;1.48;0.30;;;8.90;95.10;;;;;;5093754;28;20016;-68
2021/11/29 10:21:48;;;;;;;1.95;0.30;;;8.70;95.20;;;;;;5093328;28;20483;-68
2021/11/29 10:24:22;;;;;;;1.65;0.35;;;8.60;95.50;;;;;;5094476;28;20074;-68
2021/11/29 10:26:53;;;;;;;2.35;0.40;;;8.80;95.70;;;;;;5094246;28;20028;-68
2021/11/29 10:29:23;;;;;;;1.35;0.30;;;9.20;95.40;;;;;;5093790;28;20533;-68
2021/11/29 10:31:53;;;;;;;1.23;0.30;;;9.30;94.80;;;;;;5059555;28;20035;-67
2021/11/29 10:34:20;;;;;;;1.02;0.20;;;9.60;94.80;;;;;;5093921;28;20027;-68
2021/11/29 10:36:52;;;;;;;2.83;0.52;;;9.90;94.50;;;;;;5093655;28;20020;-68
2021/11/29 10:39:22;;;;;;;2.45;0.30;;;10.30;93.70;;;;;;5093511;28;20027;-67
2021/11/29 10:41:51;;;;;;;1.35;0.30;;;10.70;93.00;;;;;;5093775;28;20518;-67
2021/11/29 10:44:22;;;;;;;0.75;0.20;;;10.90;92.10;;;;;;5093353;28;20027;-67
2021/11/29 10:46:54;;;;;;;1.73;0.32;;;11.00;91.70;;;;;;5093755;28;20119;-67
2021/11/29 10:49:24;;;;;;;1.55;0.30;;;11.20;91.90;;;;;;5093244;28;20472;-67
2021/11/29 10:51:52;;;;;;;0.77;0.20;;;11.40;91.20;;;;;;5093326;28;20111;-67
2021/11/29 10:54:23;;;;;;;1.27;0.22;;;11.20;90.60;;;;;;5075374;28;20024;-68
2021/11/29 10:56:50;;;;;;;0.30;0.20;;;11.00;91.10;;;;;;5093199;28;20024;-67
2021/11/29 10:59:19;;;;;;;0.40;0.20;;;11.00;91.40;;;;;;5092921;28;20024;-67
2021/11/29 11:01:57;;;;;;;1.50;0.20;;;11.10;91.70;;;;;;5092572;28;20036;-68
2021/11/29 11:04:25;;;;;;;1.70;0.30;;;11.30;91.50;;;;;;5092793;28;20020;-67
2021/11/29 11:07:12;;;;;;;0.60;0.30;;;11.30;90.90;;;;;;5093166;28;20035;-67
2021/11/29 11:09:53;;;;;;;0.50;0.13;;;10.90;90.90;;;;;;5093040;28;20019;-67
2021/11/29 11:12:19;;;;;;;0.50;0.28;;;10.60;91.00;;;;;;5092919;28;20032;-67
2021/11/29 11:14:52;;;;;;;1.10;0.20;;;10.40;91.20;;;;;;5092126;28;20258;-67
2021/11/29 11:17:20;;;;;;;0.82;0.32;;;10.20;91.50;;;;;;5075453;28;20024;-67
2021/11/29 11:19:49;;;;;;;1.40;0.20;;;10.10;91.60;;;;;;5092116;28;20027;-65
2021/11/29 11:22:23;;;;;;;1.48;0.20;;;9.90;91.90;;;;;;5092959;28;20020;-65
2021/11/29 11:25:07;;;;;;;0.88;0.20;;;9.90;91.90;;;;;;5074194;28;20038;-65
2021/11/29 11:27:32;;;;;;;2.15;0.20;;;9.90;91.90;;;;;;5092939;28;20026;-65
2021/11/29 11:30:07;;;;;;;1.13;0.20;;;9.90;91.90;;;;;;5092723;28;20379;-65
2021/11/29 11:32:34;;;;;;;1.13;0.20;;;10.40;92.70;;;;;;5085070;28;20031;-65
2021/11/29 11:35:15;;;;;;;0.82;0.20;;;11.80;91.90;;;;;;5088528;28;20012;-65
2021/11/29 11:37:46;;;;;;;0.75;0.28;;;13.30;90.60;;;;;;5087248;28;20016;-65
2021/11/29 11:40:24;;;;;;;1.17;0.40;;;14.60;87.80;;;;;;5079495;28;20025;-65
2021/11/29 11:43:09;;;;;;;0.60;0.30;;;15.80;82.90;;;;;;5055502;28;20020;-65
2021/11/29 11:45:37;;;;;;;0.60;0.30;;;17.30;77.70;;;;;;5054218;28;20032;-65
2021/11/29 11:48:27;;;;;;;;;;;;;;;;;;;;;
2021/11/29 11:50:55;;;;;;;1.08;0.20;;;20.50;71.10;;;;;;5071283;28;20403;-66
2021/11/29 11:53:21;;;;;;;0.82;0.20;;;22.10;67.20;;;;;;5084241;28;20024;-66
2021/11/29 11:55:49;;;;;;;2.10;0.55;;;23.50;64.20;;;;;;5082331;28;20055;-65
2021/11/29 11:58:18;;;;;;;2.47;0.30;;;24.60;59.80;;;;;;5081203;28;20032;-66
2021/11/29 12:01:17;;;;;;;1.48;0.30;;;25.50;56.20;;;;;;5085514;28;20036;-66
2021/11/29 12:04:25;;;;;;;;;;;;;;;;;;;;;
2021/11/29 12:06:50;;;;;;;3.90;0.47;;;27.00;52.80;;;;;;5040001;28;20054;-66
2021/11/29 12:09:26;;;;;;;1.20;0.40;;;27.70;49.30;;;;;;5071348;28;20036;-67
2021/11/29 12:12:20;;;;;;;0.55;0.30;;;28.00;46.40;;;;;;5084777;28;20405;-67
2021/11/29 12:14:46;;;;;;;4.30;0.70;;;28.40;46.20;;;;;;5083375;28;20099;-66
2021/11/29 12:17:11;;;;;;;1.10;0.50;;;28.90;43.70;;;;;;5087436;28;20206;-67
2021/11/29 12:19:41;;;;;;;0.82;0.50;;;29.00;42.10;;;;;;5087452;28;20069;-66
2021/11/29 12:22:36;;;;;;;1.08;0.40;;;29.10;42.30;;;;;;5087119;28;20012;-66
2021/11/29 12:25:16;;;;;;;0.52;0.30;;;29.40;41.90;;;;;;5084948;28;20016;-67
2021/11/29 12:27:53;;;;;;;1.02;0.40;;;29.70;42.00;;;;;;5084526;28;20012;-67
2021/11/29 12:30:44;;;;;;;0.60;0.30;;;29.80;41.70;;;;;;5088316;28;20502;-67
2021/11/29 12:33:12;;;;;;;0.52;0.40;;;30.10;40.20;;;;;;5087592;28;20069;-67
2021/11/29 12:36:21;;;;;;;2.63;0.50;;;30.40;40.20;;;;;;5087312;28;20016;-67
2021/11/29 12:38:49;;;;;;;1.20;0.50;;;30.60;39.70;;;;;;5071722;28;20111;-67
2021/11/29 12:41:34;;;;;;;0.57;0.30;;;31.00;40.20;;;;;;5071973;28;20024;-67
2021/11/29 12:44:00;;;;;;;1.13;0.40;;;31.40;40.00;;;;;;5071866;28;20484;-67
2021/11/29 12:46:48;;;;;;;0.30;0.20;;;31.70;38.30;;;;;;5090069;28;20046;-67
2021/11/29 12:49:37;;;;;;;1.23;0.43;;;31.30;38.80;;;;;;5091899;28;20043;-66
2021/11/29 12:52:03;;;;;;;0.80;0.43;;;29.30;38.80;;;;;;5087642;28;20540;-67
2021/11/29 12:54:35;;;;;;;0.77;0.40;;;27.40;40.80;;;;;;5091546;28;20110;-66
2021/11/29 12:57:19;;;;;;;0.93;0.30;;;25.80;42.30;;;;;;5092378;28;20016;-66
2021/11/29 12:59:52;;;;;;;0.88;0.35;;;24.40;44.00;;;;;;5093897;28;20012;-66
2021/11/29 13:02:39;;;;;;;1.85;0.40;;;23.20;45.60;;;;;;5093783;28;20124;-66
2021/11/29 13:05:25;;;;;;;1.85;0.30;;;22.30;47.30;;;;;;5093892;28;20024;-66
2021/11/29 13:08:05;;;;;;;0.40;0.32;;;22.80;47.90;;;;;;5076184;28;20188;-66
2021/11/29 13:10:52;;;;;;;1.48;0.40;;;24.00;46.60;;;;;;5095253;28;20024;-67
2021/11/29 13:13:38;;;;;;;1.50;0.30;;;23.90;45.40;;;;;;5095421;28;20039;-66